createdAt,value
2023-06-30T00:04:53.035Z,99111.51
2023-06-30T00:15:17.190Z,99107.27
2023-06-30T00:25:41.286Z,99106.23
2023-06-30T00:36:05.902Z,99097.09
2023-06-30T00:46:30.162Z,99096.09
2023-06-30T00:56:54.227Z,99085.59
2023-06-30T01:07:23.960Z,99079.41
2023-06-30T01:17:52.649Z,99072.70
2023-06-30T01:28:19.042Z,99065.89
2023-06-30T01:38:44.225Z,99060.72
2023-06-30T01:49:11.494Z,99053.83
2023-06-30T01:59:35.692Z,99054.41
2023-06-30T02:09:59.863Z,99054.16
2023-06-30T02:20:25.250Z,99049.41
2023-06-30T02:30:49.301Z,99047.06
2023-06-30T02:41:13.373Z,99041.23
2023-06-30T02:51:37.638Z,99037.89
2023-06-30T03:02:03.024Z,99040.81
2023-06-30T03:12:27.781Z,99029.83
2023-06-30T03:22:54.003Z,99028.84
2023-06-30T03:33:18.178Z,99027.11
2023-06-30T03:43:42.178Z,99018.19
2023-06-30T03:54:07.564Z,99024.14
2023-06-30T04:04:33.197Z,99022.20
2023-06-30T04:14:58.194Z,99019.25
2023-06-30T04:25:22.403Z,99016.24
2023-06-30T04:35:46.976Z,99000.27
2023-06-30T04:46:11.430Z,98998.33
2023-06-30T04:56:35.695Z,98991.70
2023-06-30T05:06:59.813Z,98983.33
2023-06-30T05:17:24.057Z,98976.87
2023-06-30T05:27:48.281Z,98975.17
2023-06-30T05:38:12.357Z,98970.69
2023-06-30T05:48:36.384Z,98968.84
2023-06-30T05:59:00.403Z,98974.00
2023-06-30T06:09:24.445Z,98970.80
2023-06-30T06:19:48.597Z,98972.33
2023-06-30T06:30:14.303Z,98964.56
2023-06-30T06:40:37.823Z,98964.08
2023-06-30T06:51:03.906Z,98965.92
2023-06-30T07:01:28.034Z,98968.45
2023-06-30T07:11:52.281Z,98971.31
2023-06-30T07:22:16.388Z,98973.17
2023-06-30T07:32:40.484Z,98969.27
2023-06-30T07:43:04.668Z,98956.54
2023-06-30T07:53:28.824Z,98953.05
2023-06-30T08:03:53.302Z,98948.47
2023-06-30T08:14:16.993Z,98938.98
2023-06-30T08:24:42.227Z,98931.12
2023-06-30T08:35:07.110Z,98920.91
2023-06-30T08:45:31.007Z,98916.39
2023-06-30T08:55:55.472Z,98913.27
2023-06-30T09:06:20.225Z,98914.60
2023-06-30T09:16:44.264Z,98928.13
2023-06-30T09:27:08.736Z,98919.74
2023-06-30T09:37:41.142Z,98915.05
2023-06-30T09:48:10.944Z,98903.65
2023-06-30T09:58:36.517Z,98900.02
2023-06-30T10:09:02.543Z,98885.33
2023-06-30T10:19:28.320Z,98879.67
2023-06-30T10:29:53.489Z,98873.40
2023-06-30T10:40:28.223Z,98869.79
2023-06-30T10:50:54.823Z,98855.13
2023-06-30T11:01:19.078Z,98847.00
2023-06-30T11:11:50.264Z,98837.94
2023-06-30T11:22:24.333Z,98827.60
2023-06-30T11:32:48.990Z,98818.45
2023-06-30T11:43:12.647Z,98810.71
2023-06-30T11:53:37.037Z,98804.71
2023-06-30T12:04:34.843Z,98796.55
2023-06-30T12:14:58.363Z,98787.77
2023-06-30T12:25:27.431Z,98784.84
2023-06-30T12:35:51.737Z,98783.58
2023-06-30T12:46:15.298Z,98774.23
2023-06-30T12:56:39.343Z,98769.09
2023-06-30T13:07:03.473Z,98764.20
2023-06-30T13:17:27.686Z,98756.29
2023-06-30T13:27:52.015Z,98746.41
2023-06-30T13:38:16.173Z,98749.49
2023-06-30T13:48:40.942Z,98743.80
2023-06-30T13:59:05.009Z,98735.42
2023-06-30T14:09:29.353Z,98726.83
2023-06-30T14:19:53.429Z,98719.86
2023-06-30T14:30:17.874Z,98712.32
2023-06-30T14:40:42.024Z,98707.09
2023-06-30T14:51:06.129Z,98711.33
2023-06-30T15:01:30.915Z,98703.52
2023-06-30T15:11:54.632Z,98694.02
2023-06-30T15:22:19.764Z,98695.89
2023-06-30T15:32:43.425Z,98692.81
2023-06-30T15:43:08.595Z,98684.46
2023-06-30T15:53:32.759Z,98677.42
2023-06-30T16:03:57.526Z,98666.61
2023-06-30T16:14:21.754Z,98657.67
2023-06-30T16:24:46.182Z,98650.50
2023-06-30T16:35:10.681Z,98650.94
2023-06-30T16:45:35.109Z,98652.09
2023-06-30T16:56:01.137Z,98654.27
2023-06-30T17:06:26.294Z,98658.36
2023-06-30T17:16:50.590Z,98662.72
2023-06-30T17:27:14.803Z,98673.55
2023-06-30T17:37:40.054Z,98683.91
2023-06-30T17:48:04.281Z,98700.11
2023-06-30T17:58:28.492Z,98715.70
2023-06-30T18:08:52.620Z,98731.40
2023-06-30T18:19:19.137Z,98724.14
2023-06-30T18:29:42.468Z,98729.44
2023-06-30T18:40:19.772Z,98725.75
2023-06-30T18:50:44.068Z,98728.00
2023-06-30T19:01:11.082Z,98738.96
2023-06-30T19:11:34.949Z,98750.80
2023-06-30T19:21:59.397Z,98756.36
2023-06-30T19:32:23.586Z,98759.95
2023-06-30T19:42:47.914Z,98768.23
2023-06-30T19:53:13.022Z,98775.08
2023-06-30T20:03:37.552Z,98774.23
2023-06-30T20:14:01.784Z,98770.92
2023-06-30T20:24:30.014Z,98772.92
2023-06-30T20:34:54.273Z,98775.83
2023-06-30T20:45:18.639Z,98782.49
2023-06-30T20:55:43.006Z,98783.45
2023-06-30T21:06:07.458Z,98782.96
2023-06-30T21:16:31.910Z,98780.02
2023-06-30T21:26:55.930Z,98773.64
2023-06-30T21:37:19.974Z,98768.67
2023-06-30T21:47:44.032Z,98758.37
2023-06-30T21:58:22.717Z,98751.12
2023-06-30T22:08:53.412Z,98749.04
2023-06-30T22:19:19.078Z,98747.86
2023-06-30T22:29:43.310Z,98740.55
2023-06-30T22:40:09.792Z,98730.04
2023-06-30T22:50:33.319Z,98728.58
2023-06-30T23:00:57.343Z,98714.73
2023-06-30T23:11:21.499Z,98707.80
2023-06-30T23:21:45.803Z,98699.25
2023-06-30T23:32:10.345Z,98700.37
2023-06-30T23:42:33.888Z,98695.79
2023-06-30T23:52:57.873Z,98704.08
